createdAt,value
2022-08-17T00:00:43.570Z,18.70
2022-08-17T00:01:27.479Z,18.70
2022-08-17T00:02:26.830Z,18.70
2022-08-17T00:03:25.754Z,18.68
2022-08-17T00:04:25.705Z,18.68
2022-08-17T00:05:25.696Z,18.68
2022-08-17T00:06:25.691Z,18.67
2022-08-17T00:07:25.682Z,18.65
2022-08-17T00:08:25.649Z,18.62
2022-08-17T00:09:25.653Z,18.58
2022-08-17T00:10:25.621Z,18.55
2022-08-17T00:11:25.611Z,18.54
2022-08-17T00:12:43.513Z,18.54
2022-08-17T00:13:26.585Z,18.50
2022-08-17T00:14:25.575Z,18.50
2022-08-17T00:15:25.574Z,18.47
2022-08-17T00:16:50.414Z,18.47
2022-08-17T00:17:26.563Z,18.44
2022-08-17T00:19:02.139Z,18.44
2022-08-17T00:19:26.504Z,18.42
2022-08-17T00:20:30.440Z,18.42
2022-08-17T00:21:26.488Z,18.40
2022-08-17T00:22:33.752Z,18.40
2022-08-17T00:23:26.453Z,18.42
2022-08-17T00:24:25.439Z,18.44
2022-08-17T00:25:25.423Z,18.44
2022-08-17T00:26:43.415Z,18.46
2022-08-17T00:27:26.409Z,18.52
2022-08-17T00:28:25.413Z,18.55
2022-08-17T00:29:25.381Z,18.57
2022-08-17T00:30:25.347Z,18.58
2022-08-17T00:31:25.339Z,18.61
2022-08-17T00:33:11.614Z,18.65
2022-08-17T00:33:26.750Z,18.67
2022-08-17T00:34:25.412Z,18.67
2022-08-17T00:35:25.293Z,18.65
2022-08-17T00:36:25.261Z,18.65
2022-08-17T00:37:25.261Z,18.64
2022-08-17T00:38:25.253Z,18.64
2022-08-17T00:39:25.295Z,18.62
2022-08-17T00:40:25.212Z,18.61
2022-08-17T00:41:25.215Z,18.61
2022-08-17T00:42:28.932Z,18.58
2022-08-17T00:43:26.181Z,18.59
2022-08-17T00:44:25.174Z,18.57
2022-08-17T00:45:26.163Z,18.54
2022-08-17T00:46:25.145Z,18.49
2022-08-17T00:47:25.140Z,18.44
2022-08-17T00:48:29.517Z,18.39
2022-08-17T00:49:26.108Z,18.36
2022-08-17T00:50:25.074Z,18.29
2022-08-17T00:51:25.106Z,18.25
2022-08-17T00:52:25.059Z,18.22
2022-08-17T00:53:25.036Z,18.19
2022-08-17T00:54:25.030Z,18.19
2022-08-17T00:55:25.029Z,18.21
2022-08-17T00:56:24.997Z,18.24
2022-08-17T00:57:25.031Z,18.27
2022-08-17T00:58:35.848Z,18.28
2022-08-17T00:59:25.958Z,18.29
2022-08-17T01:00:24.951Z,18.28
2022-08-17T01:01:24.952Z,18.28
2022-08-17T01:02:24.955Z,18.28
2022-08-17T01:03:24.913Z,18.25
2022-08-17T01:04:24.879Z,18.25
2022-08-17T01:05:25.384Z,18.25
2022-08-17T01:06:24.851Z,18.25
2022-08-17T01:07:24.849Z,18.27
2022-08-17T01:08:24.844Z,18.28
2022-08-17T01:09:24.837Z,18.29
2022-08-17T01:10:59.082Z,18.33
2022-08-17T01:11:25.795Z,18.34
2022-08-17T01:12:24.787Z,18.36
2022-08-17T01:13:24.764Z,18.39
2022-08-17T01:14:24.766Z,18.39
2022-08-17T01:15:24.748Z,18.40
2022-08-17T01:16:24.724Z,18.40
2022-08-17T01:17:24.726Z,18.37
2022-08-17T01:18:24.795Z,18.36
2022-08-17T01:19:24.686Z,18.33
2022-08-17T01:20:24.680Z,18.31
2022-08-17T01:21:24.658Z,18.29
2022-08-17T01:22:24.650Z,18.29
2022-08-17T01:23:24.648Z,18.29
2022-08-17T01:24:24.738Z,18.31
2022-08-17T01:25:24.599Z,18.33
2022-08-17T01:26:24.602Z,18.31
2022-08-17T01:27:24.590Z,18.29
2022-08-17T01:28:40.701Z,18.29
2022-08-17T01:29:25.584Z,18.27
2022-08-17T01:30:58.722Z,18.21
2022-08-17T01:31:25.552Z,18.13
2022-08-17T01:32:24.513Z,18.04
2022-08-17T01:33:24.491Z,18.03
2022-08-17T01:34:24.485Z,18.00
2022-08-17T01:35:26.573Z,17.99
2022-08-17T01:36:24.443Z,17.99
2022-08-17T01:37:24.456Z,17.97
2022-08-17T01:38:27.170Z,17.97
2022-08-17T01:39:24.475Z,17.95
2022-08-17T01:40:24.418Z,17.92
2022-08-17T01:41:24.399Z,17.94
2022-08-17T01:42:24.374Z,17.92
2022-08-17T01:43:24.353Z,17.92
2022-08-17T01:44:24.350Z,17.92
2022-08-17T01:45:24.324Z,17.94
2022-08-17T01:46:24.331Z,17.89
2022-08-17T01:47:24.309Z,17.89
2022-08-17T01:48:24.277Z,17.84
2022-08-17T01:49:24.289Z,17.79
2022-08-17T01:50:24.248Z,17.74
2022-08-17T01:51:24.246Z,17.74
2022-08-17T01:52:24.240Z,17.71
2022-08-17T01:53:24.216Z,17.70
2022-08-17T01:54:24.211Z,17.69
2022-08-17T01:55:27.336Z,17.70
2022-08-17T01:56:24.181Z,17.69
2022-08-17T01:57:24.180Z,17.69
2022-08-17T01:58:24.143Z,17.70
2022-08-17T01:59:24.131Z,17.69
2022-08-17T02:00:24.155Z,17.69
2022-08-17T02:01:24.292Z,17.66
2022-08-17T02:02:30.321Z,17.62
2022-08-17T02:03:25.096Z,17.59
2022-08-17T02:04:24.061Z,17.55
2022-08-17T02:05:24.067Z,17.54
2022-08-17T02:06:27.308Z,17.53
2022-08-17T02:07:26.116Z,17.54
2022-08-17T02:08:39.232Z,17.51
2022-08-17T02:09:25.623Z,17.53
2022-08-17T02:10:24.028Z,17.50
2022-08-17T02:11:25.027Z,17.51
2022-08-17T02:12:47.939Z,17.53
2022-08-17T02:13:24.999Z,17.46
2022-08-17T02:14:23.939Z,17.36
2022-08-17T02:15:23.929Z,17.26
2022-08-17T02:16:23.896Z,17.14
2022-08-17T02:17:23.908Z,16.92
2022-08-17T02:18:23.870Z,16.74
2022-08-17T02:19:23.867Z,16.63
2022-08-17T02:20:41.863Z,16.55
2022-08-17T02:21:24.838Z,16.49
2022-08-17T02:22:23.832Z,16.45
2022-08-17T02:23:23.821Z,16.49
2022-08-17T02:24:59.674Z,16.55
2022-08-17T02:25:24.795Z,16.58
2022-08-17T02:26:24.101Z,16.60
2022-08-17T02:27:23.750Z,16.60
2022-08-17T02:28:23.774Z,16.62
2022-08-17T02:29:23.743Z,16.60
2022-08-17T02:31:00.858Z,16.62
2022-08-17T02:31:24.702Z,16.62
2022-08-17T02:32:27.349Z,16.60
2022-08-17T02:33:23.672Z,16.63
2022-08-17T02:34:24.668Z,16.65
2022-08-17T02:35:23.665Z,16.65
2022-08-17T02:36:27.336Z,16.67
2022-08-17T02:37:23.637Z,16.70
2022-08-17T02:38:23.603Z,16.71
2022-08-17T02:39:23.597Z,16.73
2022-08-17T02:40:35.679Z,16.71
2022-08-17T02:41:24.606Z,16.74
2022-08-17T02:42:23.560Z,16.75
2022-08-17T02:43:23.550Z,16.77
2022-08-17T02:44:39.294Z,16.78
2022-08-17T02:45:24.509Z,16.78
2022-08-17T02:46:23.510Z,16.80
2022-08-17T02:47:23.522Z,16.80
2022-08-17T02:48:30.955Z,16.78
2022-08-17T02:49:24.472Z,16.75
2022-08-17T02:50:23.442Z,16.73
2022-08-17T02:51:23.429Z,16.70
2022-08-17T02:52:42.505Z,16.68
2022-08-17T02:53:24.441Z,16.63
2022-08-17T02:54:40.538Z,16.62
2022-08-17T02:55:24.394Z,16.60
2022-08-17T02:56:23.361Z,16.58
2022-08-17T02:57:23.364Z,16.58
2022-08-17T02:58:35.156Z,16.55
2022-08-17T02:59:24.331Z,16.56
2022-08-17T03:00:23.315Z,16.58
2022-08-17T03:01:23.369Z,16.56
2022-08-17T03:02:23.297Z,16.58
2022-08-17T03:03:23.288Z,16.58
2022-08-17T03:04:23.254Z,16.62
2022-08-17T03:05:23.258Z,16.63
2022-08-17T03:06:23.225Z,16.63
2022-08-17T03:07:23.215Z,16.60
2022-08-17T03:08:23.242Z,16.59
2022-08-17T03:09:23.217Z,16.55
2022-08-17T03:10:23.198Z,16.44
2022-08-17T03:11:23.203Z,16.35
2022-08-17T03:12:23.147Z,16.30
2022-08-17T03:13:23.156Z,16.16
2022-08-17T03:14:26.191Z,16.04
2022-08-17T03:15:23.141Z,15.96
2022-08-17T03:16:23.106Z,15.88
2022-08-17T03:17:23.105Z,15.78
2022-08-17T03:18:25.482Z,15.74
2022-08-17T03:19:23.056Z,15.79
2022-08-17T03:20:23.052Z,15.74
2022-08-17T03:21:23.029Z,15.67
2022-08-17T03:22:36.085Z,15.66
2022-08-17T03:23:25.245Z,15.64
2022-08-17T03:24:26.814Z,15.61
2022-08-17T03:25:23.985Z,15.61
2022-08-17T03:26:23.083Z,15.64
2022-08-17T03:27:22.944Z,15.66
2022-08-17T03:28:22.935Z,15.68
2022-08-17T03:29:22.922Z,15.70
2022-08-17T03:30:22.916Z,15.72
2022-08-17T03:31:22.906Z,15.74
2022-08-17T03:32:22.983Z,15.75
2022-08-17T03:33:22.865Z,15.78
2022-08-17T03:34:22.857Z,15.78
2022-08-17T03:35:22.852Z,15.78
2022-08-17T03:36:22.814Z,15.76
2022-08-17T03:37:22.818Z,15.75
2022-08-17T03:38:23.276Z,15.68
2022-08-17T03:39:22.776Z,15.66
2022-08-17T03:40:39.886Z,15.64
2022-08-17T03:41:23.756Z,15.64
2022-08-17T03:42:31.485Z,15.67
2022-08-17T03:43:23.773Z,15.67
2022-08-17T03:44:22.707Z,15.70
2022-08-17T03:45:22.712Z,15.72
2022-08-17T03:46:28.310Z,15.75
2022-08-17T03:47:23.669Z,15.78
2022-08-17T03:48:22.671Z,15.81
2022-08-17T03:49:22.803Z,15.84
2022-08-17T03:50:22.630Z,15.81
2022-08-17T03:51:22.621Z,15.79
2022-08-17T03:52:22.614Z,15.78
2022-08-17T03:53:22.595Z,15.76
2022-08-17T03:54:22.593Z,15.76
2022-08-17T03:55:22.585Z,15.79
2022-08-17T03:56:23.541Z,15.81
2022-08-17T03:57:22.563Z,15.82
2022-08-17T03:58:22.514Z,15.84
2022-08-17T03:59:22.679Z,15.86
2022-08-17T04:00:22.527Z,15.86
2022-08-17T04:01:22.512Z,15.88
2022-08-17T04:02:22.484Z,15.88
2022-08-17T04:03:22.468Z,15.92
2022-08-17T04:04:28.014Z,15.96
2022-08-17T04:05:23.454Z,15.97
2022-08-17T04:06:22.428Z,15.99
2022-08-17T04:07:22.415Z,15.96
2022-08-17T04:08:22.386Z,15.92
2022-08-17T04:09:22.380Z,15.81
2022-08-17T04:10:26.297Z,15.68
2022-08-17T04:11:22.367Z,15.61
2022-08-17T04:12:22.350Z,15.54
2022-08-17T04:13:24.750Z,15.46
2022-08-17T04:14:22.320Z,15.43
2022-08-17T04:15:22.293Z,15.35
2022-08-17T04:16:22.278Z,15.36
2022-08-17T04:17:22.313Z,15.38
2022-08-17T04:18:22.249Z,15.36
2022-08-17T04:19:22.230Z,15.41
2022-08-17T04:20:22.235Z,15.45
2022-08-17T04:21:22.218Z,15.46
2022-08-17T04:22:33.343Z,15.46
2022-08-17T04:23:23.180Z,15.49
2022-08-17T04:24:22.187Z,15.51
2022-08-17T04:25:22.154Z,15.51
2022-08-17T04:26:52.464Z,15.57
2022-08-17T04:27:23.137Z,15.64
2022-08-17T04:28:22.114Z,15.70
2022-08-17T04:29:22.112Z,15.76
2022-08-17T04:30:22.085Z,15.81
2022-08-17T04:31:22.064Z,15.84
2022-08-17T04:32:58.541Z,15.85
2022-08-17T04:33:23.145Z,15.89
2022-08-17T04:34:22.058Z,15.92
2022-08-17T04:35:22.031Z,15.93
2022-08-17T04:36:22.006Z,15.94
2022-08-17T04:37:21.994Z,15.96
2022-08-17T04:38:22.001Z,15.99
2022-08-17T04:39:22.001Z,16.00
2022-08-17T04:40:21.948Z,16.03
2022-08-17T04:41:21.951Z,16.04
2022-08-17T04:42:21.928Z,16.06
2022-08-17T04:43:21.908Z,16.11
2022-08-17T04:44:37.117Z,16.15
2022-08-17T04:45:22.908Z,16.20
2022-08-17T04:46:21.885Z,16.20
2022-08-17T04:47:21.863Z,16.22
2022-08-17T04:48:21.843Z,16.26
2022-08-17T04:49:21.835Z,16.26
2022-08-17T04:50:21.818Z,16.26
2022-08-17T04:51:21.807Z,16.27
2022-08-17T04:52:29.667Z,16.30
2022-08-17T04:53:22.785Z,16.30
2022-08-17T04:54:21.762Z,16.33
2022-08-17T04:55:21.742Z,16.34
2022-08-17T04:56:21.856Z,16.38
2022-08-17T04:57:21.714Z,16.42
2022-08-17T04:58:21.726Z,16.48
2022-08-17T04:59:21.705Z,16.52
2022-08-17T05:00:21.705Z,16.58
2022-08-17T05:01:23.135Z,16.63
2022-08-17T05:02:21.765Z,16.70
2022-08-17T05:03:21.635Z,16.73
2022-08-17T05:04:34.089Z,16.77
2022-08-17T05:05:22.615Z,16.83
2022-08-17T05:06:21.611Z,16.90
2022-08-17T05:07:24.602Z,16.96
2022-08-17T05:08:21.691Z,17.04
2022-08-17T05:09:21.569Z,17.10
2022-08-17T05:10:21.547Z,17.15
2022-08-17T05:11:21.528Z,17.25
2022-08-17T05:12:21.532Z,17.30
2022-08-17T05:13:21.501Z,17.38
2022-08-17T05:14:21.513Z,17.44
2022-08-17T05:15:22.495Z,17.51
2022-08-17T05:16:21.473Z,17.62
2022-08-17T05:17:21.463Z,17.67
2022-08-17T05:18:21.441Z,17.76
2022-08-17T05:19:21.452Z,17.82
2022-08-17T05:20:21.425Z,17.89
2022-08-17T05:21:21.393Z,17.97
2022-08-17T05:22:21.395Z,18.04
2022-08-17T05:23:21.386Z,18.09
2022-08-17T05:24:40.696Z,18.13
2022-08-17T05:25:25.694Z,18.19
2022-08-17T05:26:26.256Z,18.27
2022-08-17T05:27:22.327Z,18.28
2022-08-17T05:28:26.556Z,18.29
2022-08-17T05:29:22.300Z,18.27
2022-08-17T05:30:22.277Z,18.27
2022-08-17T05:31:21.264Z,18.24
2022-08-17T05:32:39.625Z,18.22
2022-08-17T05:33:22.235Z,18.19
2022-08-17T05:34:21.241Z,18.18
2022-08-17T05:35:21.220Z,18.19
2022-08-17T05:36:43.580Z,18.21
2022-08-17T05:37:22.191Z,18.22
2022-08-17T05:38:21.168Z,18.24
2022-08-17T05:39:21.148Z,18.25
2022-08-17T05:40:21.161Z,18.24
2022-08-17T05:41:21.243Z,18.22
2022-08-17T05:42:21.117Z,18.21
2022-08-17T05:43:21.099Z,18.19
2022-08-17T05:44:21.104Z,18.18
2022-08-17T05:45:32.127Z,18.21
2022-08-17T05:46:22.095Z,18.25
2022-08-17T05:47:21.065Z,18.37
2022-08-17T05:48:21.031Z,18.46
2022-08-17T05:49:22.027Z,18.54
2022-08-17T05:50:24.406Z,18.61
2022-08-17T05:51:21.982Z,18.72
2022-08-17T05:52:21.014Z,18.79
2022-08-17T05:53:20.957Z,18.87
2022-08-17T05:54:20.967Z,18.97
2022-08-17T05:55:20.948Z,19.06
2022-08-17T05:56:30.250Z,19.13
2022-08-17T05:57:21.906Z,19.18
2022-08-17T05:58:20.909Z,19.28
2022-08-17T05:59:20.889Z,19.33
2022-08-17T06:00:20.866Z,19.40
2022-08-17T06:01:21.925Z,19.46
2022-08-17T06:02:20.866Z,19.53
2022-08-17T06:03:20.823Z,19.58
2022-08-17T06:04:20.830Z,19.63
2022-08-17T06:05:20.798Z,19.70
2022-08-17T06:06:20.802Z,19.76
2022-08-17T06:07:20.792Z,19.80
2022-08-17T06:08:20.868Z,19.87
2022-08-17T06:09:26.665Z,19.93
2022-08-17T06:10:21.740Z,19.97
2022-08-17T06:11:20.721Z,20.02
2022-08-17T06:12:20.723Z,20.08
2022-08-17T06:13:20.681Z,20.12
2022-08-17T06:14:20.803Z,20.16
2022-08-17T06:15:20.679Z,20.20
2022-08-17T06:16:32.842Z,20.24
2022-08-17T06:17:21.645Z,20.28
2022-08-17T06:18:20.622Z,20.33
2022-08-17T06:19:20.604Z,20.35
2022-08-17T06:20:20.617Z,20.35
2022-08-17T06:21:20.584Z,20.38
2022-08-17T06:22:21.578Z,20.30
2022-08-17T06:23:20.570Z,20.18
2022-08-17T06:24:20.546Z,20.09
2022-08-17T06:25:20.548Z,20.00
2022-08-17T06:26:20.525Z,19.97
2022-08-17T06:27:20.519Z,19.98
2022-08-17T06:28:20.502Z,20.02
2022-08-17T06:29:20.488Z,20.10
2022-08-17T06:30:20.487Z,20.20
2022-08-17T06:31:20.447Z,20.31
2022-08-17T06:32:20.453Z,20.42
2022-08-17T06:33:20.423Z,20.54
2022-08-17T06:34:20.430Z,20.64
2022-08-17T06:35:20.404Z,20.76
2022-08-17T06:36:20.389Z,20.83
2022-08-17T06:37:20.385Z,20.91
2022-08-17T06:38:38.470Z,21.02
2022-08-17T06:39:21.341Z,21.13
2022-08-17T06:40:20.354Z,21.21
2022-08-17T06:41:20.343Z,21.32
2022-08-17T06:43:02.111Z,21.41
2022-08-17T06:43:21.296Z,21.53
2022-08-17T06:44:50.310Z,21.57
2022-08-17T06:45:21.262Z,21.63
2022-08-17T06:46:20.268Z,21.71
2022-08-17T06:47:28.479Z,21.78
2022-08-17T06:48:21.225Z,21.83
2022-08-17T06:49:20.218Z,21.91
2022-08-17T06:50:20.196Z,22.01
2022-08-17T06:51:20.175Z,22.13
2022-08-17T06:52:45.738Z,22.23
2022-08-17T06:53:21.187Z,22.34
2022-08-17T06:54:20.155Z,22.44
2022-08-17T06:55:20.135Z,22.57
2022-08-17T06:56:20.108Z,22.69
2022-08-17T06:57:20.128Z,22.78
2022-08-17T06:58:20.079Z,22.80
2022-08-17T06:59:20.069Z,22.87
2022-08-17T07:00:20.073Z,23.01
2022-08-17T07:01:20.130Z,23.15
2022-08-17T07:02:20.028Z,23.24
2022-08-17T07:03:21.019Z,23.27
2022-08-17T07:04:20.074Z,23.39
2022-08-17T07:05:19.981Z,23.52
2022-08-17T07:06:19.987Z,23.61
2022-08-17T07:07:19.977Z,23.75
2022-08-17T07:08:19.942Z,23.86
2022-08-17T07:09:20.057Z,23.97
2022-08-17T07:10:19.922Z,24.10
2022-08-17T07:11:19.903Z,24.22
2022-08-17T07:12:19.908Z,24.35
2022-08-17T07:13:19.874Z,24.52
2022-08-17T07:14:19.890Z,24.61
2022-08-17T07:15:19.867Z,24.71
2022-08-17T07:16:19.836Z,24.75
2022-08-17T07:17:19.839Z,24.87
2022-08-17T07:18:19.816Z,24.98
2022-08-17T07:19:19.798Z,25.15
2022-08-17T07:20:19.911Z,25.32
2022-08-17T07:21:22.963Z,25.44
2022-08-17T07:22:20.776Z,25.44
2022-08-17T07:23:19.754Z,25.50
2022-08-17T07:24:28.123Z,25.53
2022-08-17T07:25:21.021Z,25.61
2022-08-17T07:26:19.710Z,25.68
2022-08-17T07:27:19.699Z,25.83
2022-08-17T07:28:19.702Z,25.94
2022-08-17T07:29:19.661Z,26.06
2022-08-17T07:30:19.664Z,26.11
2022-08-17T07:31:19.664Z,26.15
2022-08-17T07:32:19.622Z,26.11
2022-08-17T07:33:19.604Z,26.17
2022-08-17T07:34:19.615Z,25.89
2022-08-17T07:35:19.999Z,25.44
2022-08-17T07:36:19.574Z,25.15
2022-08-17T07:37:19.583Z,25.06
2022-08-17T07:38:25.330Z,25.16
2022-08-17T07:39:20.526Z,25.28
2022-08-17T07:40:19.583Z,25.34
2022-08-17T07:41:19.497Z,25.22
2022-08-17T07:42:19.500Z,25.27
2022-08-17T07:43:23.266Z,25.42
2022-08-17T07:44:19.466Z,25.57
2022-08-17T07:45:19.461Z,25.77
2022-08-17T07:46:19.468Z,25.94
2022-08-17T07:47:19.418Z,26.17
2022-08-17T07:48:19.422Z,26.21
2022-08-17T07:49:19.405Z,26.43
2022-08-17T07:50:23.930Z,26.64
2022-08-17T07:51:20.391Z,26.92
2022-08-17T07:52:48.339Z,27.26
2022-08-17T07:53:20.332Z,27.41
2022-08-17T07:54:19.346Z,26.67
2022-08-17T07:55:19.326Z,26.40
2022-08-17T07:56:19.302Z,26.47
2022-08-17T07:57:19.307Z,26.64
2022-08-17T07:58:19.282Z,26.80
2022-08-17T07:59:23.386Z,26.99
2022-08-17T08:00:19.266Z,27.14
2022-08-17T08:01:20.276Z,27.29
2022-08-17T08:02:19.297Z,27.42
2022-08-17T08:03:19.218Z,27.57
2022-08-17T08:04:21.346Z,27.70
2022-08-17T08:05:31.739Z,27.84
2022-08-17T08:06:20.185Z,27.89
2022-08-17T08:07:19.201Z,27.95
2022-08-17T08:08:19.138Z,27.92
2022-08-17T08:09:19.135Z,27.94
2022-08-17T08:10:19.117Z,27.99
2022-08-17T08:11:19.122Z,28.07
2022-08-17T08:12:19.102Z,28.09
2022-08-17T08:13:19.098Z,28.06
2022-08-17T08:14:19.074Z,28.09
2022-08-17T08:15:19.154Z,28.14
2022-08-17T08:16:19.031Z,28.19
2022-08-17T08:17:19.038Z,28.19
2022-08-17T08:18:19.012Z,28.14
2022-08-17T08:19:21.191Z,28.10
2022-08-17T08:20:47.650Z,28.14
2022-08-17T08:21:19.972Z,28.25
2022-08-17T08:22:18.967Z,28.33
2022-08-17T08:23:18.958Z,28.40
2022-08-17T08:24:18.956Z,28.31
2022-08-17T08:25:18.937Z,28.35
2022-08-17T08:26:19.008Z,28.36
2022-08-17T08:27:18.902Z,28.43
2022-08-17T08:28:18.889Z,28.54
2022-08-17T08:29:18.857Z,28.69
2022-08-17T08:30:18.872Z,28.81
2022-08-17T08:31:18.842Z,28.95
2022-08-17T08:32:18.818Z,29.06
2022-08-17T08:33:18.823Z,29.15
2022-08-17T08:34:55.877Z,29.08
2022-08-17T08:35:19.817Z,28.97
2022-08-17T08:37:12.682Z,28.96
2022-08-17T08:37:30.380Z,29.04
2022-08-17T08:38:19.732Z,29.16
2022-08-17T08:39:18.721Z,29.19
2022-08-17T08:40:18.724Z,29.26
2022-08-17T08:41:18.700Z,29.38
2022-08-17T08:42:18.712Z,29.57
2022-08-17T08:43:18.863Z,29.63
2022-08-17T08:44:18.653Z,29.71
2022-08-17T08:45:18.658Z,29.87
2022-08-17T08:46:19.789Z,30.11
2022-08-17T08:47:18.635Z,30.29
2022-08-17T08:48:52.750Z,30.47
2022-08-17T08:49:19.588Z,30.61
2022-08-17T08:50:37.120Z,30.68
2022-08-17T08:51:19.603Z,30.68
2022-08-17T08:52:18.537Z,30.81
2022-08-17T08:53:18.528Z,30.89
2022-08-17T08:54:26.735Z,30.94
2022-08-17T08:55:19.522Z,30.96
2022-08-17T08:56:18.489Z,31.09
2022-08-17T08:57:32.797Z,31.20
2022-08-17T08:58:31.802Z,31.26
2022-08-17T08:59:19.465Z,31.33
2022-08-17T09:00:18.526Z,31.43
2022-08-17T09:01:18.468Z,31.35
2022-08-17T09:02:18.425Z,31.21
2022-08-17T09:03:18.425Z,31.12
2022-08-17T09:04:24.822Z,31.05
2022-08-17T09:05:19.394Z,31.11
2022-08-17T09:06:37.644Z,31.17
2022-08-17T09:07:19.355Z,31.28
2022-08-17T09:08:18.361Z,31.26
2022-08-17T09:09:18.338Z,31.24
2022-08-17T09:10:18.337Z,31.48
2022-08-17T09:11:18.303Z,31.60
2022-08-17T09:12:18.290Z,31.68
2022-08-17T09:13:18.307Z,31.60
2022-08-17T09:14:21.863Z,31.50
2022-08-17T09:15:19.261Z,31.43
2022-08-17T09:16:18.228Z,31.39
2022-08-17T09:17:18.421Z,31.26
2022-08-17T09:19:00.556Z,31.11
2022-08-17T09:19:19.206Z,30.96
2022-08-17T09:20:27.988Z,30.74
2022-08-17T09:21:19.171Z,30.75
2022-08-17T09:22:18.166Z,30.86
2022-08-17T09:23:18.155Z,30.99
2022-08-17T09:24:20.701Z,31.05
2022-08-17T09:25:18.126Z,31.18
2022-08-17T09:26:18.102Z,31.27
2022-08-17T09:27:18.104Z,31.40
2022-08-17T09:28:18.087Z,31.43
2022-08-17T09:29:18.067Z,31.60
2022-08-17T09:30:18.097Z,31.73
2022-08-17T09:31:18.058Z,31.72
2022-08-17T09:32:18.094Z,31.75
2022-08-17T09:33:18.030Z,31.85
2022-08-17T09:34:17.998Z,31.79
2022-08-17T09:35:17.998Z,31.68
2022-08-17T09:36:17.982Z,31.62
2022-08-17T09:37:17.969Z,31.62
2022-08-17T09:38:17.961Z,31.75
2022-08-17T09:39:17.952Z,31.85
2022-08-17T09:40:18.002Z,31.76
2022-08-17T09:41:17.911Z,31.68
2022-08-17T09:42:17.970Z,31.67
2022-08-17T09:43:17.895Z,31.54
2022-08-17T09:44:23.005Z,31.46
2022-08-17T09:45:18.876Z,31.49
2022-08-17T09:46:17.871Z,31.43
2022-08-17T09:47:17.842Z,31.36
2022-08-17T09:48:18.188Z,31.18
2022-08-17T09:49:21.850Z,31.26
2022-08-17T09:50:18.806Z,31.35
2022-08-17T09:51:18.818Z,31.43
2022-08-17T09:52:17.924Z,31.45
2022-08-17T09:53:17.775Z,31.45
2022-08-17T09:54:37.961Z,31.42
2022-08-17T09:55:18.723Z,31.42
2022-08-17T09:56:17.722Z,31.73
2022-08-17T09:57:29.818Z,31.85
2022-08-17T09:58:18.680Z,32.10
2022-08-17T09:59:17.676Z,32.49
2022-08-17T10:00:17.676Z,33.23
2022-08-17T10:01:17.719Z,33.60
2022-08-17T10:02:17.710Z,33.76
2022-08-17T10:03:17.640Z,33.73
2022-08-17T10:04:20.119Z,34.01
2022-08-17T10:05:17.605Z,34.16
2022-08-17T10:06:22.042Z,34.09
2022-08-17T10:07:17.563Z,34.02
2022-08-17T10:08:17.566Z,34.19
2022-08-17T10:09:17.542Z,34.46
2022-08-17T10:10:17.674Z,34.98
2022-08-17T10:11:17.537Z,35.32
2022-08-17T10:12:17.823Z,35.62
2022-08-17T10:13:18.298Z,35.45
2022-08-17T10:14:36.702Z,35.26
2022-08-17T10:15:18.479Z,34.56
2022-08-17T10:16:17.448Z,33.94
2022-08-17T10:17:17.462Z,33.67
2022-08-17T10:18:17.417Z,33.60
2022-08-17T10:19:17.438Z,33.63
2022-08-17T10:20:17.404Z,33.55
2022-08-17T10:21:17.378Z,33.31
2022-08-17T10:22:34.570Z,33.10
2022-08-17T10:23:18.373Z,32.91
2022-08-17T10:24:17.339Z,33.46
2022-08-17T10:25:22.912Z,34.20
2022-08-17T10:26:18.311Z,34.56
2022-08-17T10:27:17.302Z,34.89
2022-08-17T10:28:19.908Z,34.94
2022-08-17T10:29:17.288Z,34.89
2022-08-17T10:30:17.276Z,34.80
2022-08-17T10:31:34.147Z,34.69
2022-08-17T10:32:18.233Z,34.35
2022-08-17T10:33:17.257Z,33.95
2022-08-17T10:34:17.205Z,33.48
2022-08-17T10:35:17.207Z,33.17
2022-08-17T10:36:17.199Z,32.70
2022-08-17T10:37:17.175Z,32.42
2022-08-17T10:38:17.171Z,32.47
2022-08-17T10:39:17.160Z,32.54
2022-08-17T10:40:17.214Z,32.58
2022-08-17T10:41:17.253Z,32.61
2022-08-17T10:42:30.136Z,32.59
2022-08-17T10:43:18.099Z,32.54
2022-08-17T10:44:37.031Z,32.81
2022-08-17T10:45:18.083Z,33.06
2022-08-17T10:46:30.441Z,32.98
2022-08-17T10:47:18.061Z,32.93
2022-08-17T10:48:17.043Z,32.79
2022-08-17T10:49:17.061Z,32.59
2022-08-17T10:50:17.018Z,32.43
2022-08-17T10:51:17.006Z,32.30
2022-08-17T10:52:17.113Z,32.27
2022-08-17T10:53:19.930Z,32.35
2022-08-17T10:54:16.953Z,32.32
2022-08-17T10:55:16.945Z,32.29
2022-08-17T10:56:16.938Z,32.30
2022-08-17T10:57:16.914Z,32.27
2022-08-17T10:58:16.909Z,32.21
2022-08-17T10:59:16.910Z,32.14
2022-08-17T11:00:16.866Z,32.14
2022-08-17T11:01:16.900Z,32.03
2022-08-17T11:02:16.861Z,31.93
2022-08-17T11:03:16.851Z,31.95
2022-08-17T11:04:16.838Z,31.84
2022-08-17T11:05:16.824Z,31.82
2022-08-17T11:06:16.796Z,31.77
2022-08-17T11:07:16.781Z,31.79
2022-08-17T11:08:17.375Z,31.84
2022-08-17T11:09:16.763Z,31.92
2022-08-17T11:10:16.754Z,32.05
2022-08-17T11:11:16.744Z,32.18
2022-08-17T11:12:16.711Z,32.35
2022-08-17T11:13:16.725Z,32.30
2022-08-17T11:14:16.722Z,32.27
2022-08-17T11:15:16.683Z,32.29
2022-08-17T11:16:16.687Z,32.35
2022-08-17T11:17:16.667Z,32.40
2022-08-17T11:18:16.636Z,32.48
2022-08-17T11:19:16.625Z,32.55
2022-08-17T11:20:16.629Z,32.66
2022-08-17T11:21:16.604Z,32.77
2022-08-17T11:22:16.607Z,32.85
2022-08-17T11:23:16.590Z,32.88
2022-08-17T11:24:16.576Z,32.98
2022-08-17T11:25:16.696Z,32.88
2022-08-17T11:26:16.530Z,32.80
2022-08-17T11:27:16.536Z,32.70
2022-08-17T11:28:18.057Z,32.71
2022-08-17T11:29:16.499Z,32.80
2022-08-17T11:30:16.501Z,32.98
2022-08-17T11:31:16.494Z,33.14
2022-08-17T11:32:16.462Z,33.27
2022-08-17T11:33:16.473Z,33.57
2022-08-17T11:34:16.432Z,33.95
2022-08-17T11:35:16.422Z,34.19
2022-08-17T11:36:16.537Z,34.34
2022-08-17T11:37:16.394Z,34.70
2022-08-17T11:38:16.846Z,34.94
2022-08-17T11:39:16.388Z,35.17
2022-08-17T11:40:16.418Z,35.79
2022-08-17T11:41:16.361Z,36.56
2022-08-17T11:42:16.345Z,37.31
2022-08-17T11:43:16.326Z,37.85
2022-08-17T11:44:16.321Z,37.92
2022-08-17T11:45:31.618Z,37.83
2022-08-17T11:46:17.292Z,37.64
2022-08-17T11:47:16.310Z,37.55
2022-08-17T11:48:27.970Z,37.41
2022-08-17T11:49:17.239Z,36.95
2022-08-17T11:50:16.241Z,37.12
2022-08-17T11:51:16.232Z,36.92
2022-08-17T11:52:16.202Z,37.05
2022-08-17T11:53:16.315Z,37.12
2022-08-17T11:54:32.327Z,36.41
2022-08-17T11:55:34.439Z,36.15
2022-08-17T11:56:17.167Z,36.42
2022-08-17T11:57:16.143Z,36.21
2022-08-17T11:58:16.138Z,35.79
2022-08-17T11:59:16.134Z,35.48
2022-08-17T12:00:16.095Z,35.26
2022-08-17T12:01:16.294Z,35.26
2022-08-17T12:02:16.076Z,35.44
2022-08-17T12:03:16.132Z,35.67
2022-08-17T12:04:16.112Z,35.17
2022-08-17T12:05:16.051Z,34.74
2022-08-17T12:06:16.017Z,34.53
2022-08-17T12:07:16.017Z,34.26
2022-08-17T12:08:16.018Z,34.16
2022-08-17T12:09:15.988Z,34.14
2022-08-17T12:10:15.990Z,34.23
2022-08-17T12:11:15.972Z,34.26
2022-08-17T12:12:15.991Z,34.07
2022-08-17T12:13:15.969Z,33.78
2022-08-17T12:14:20.147Z,33.68
2022-08-17T12:15:16.913Z,33.57
2022-08-17T12:16:15.906Z,33.46
2022-08-17T12:17:39.314Z,33.15
2022-08-17T12:18:16.888Z,32.81
2022-08-17T12:19:15.877Z,32.58
2022-08-17T12:20:15.875Z,32.40
2022-08-17T12:21:15.833Z,32.39
2022-08-17T12:22:15.832Z,32.42
2022-08-17T12:23:15.821Z,32.40
2022-08-17T12:24:15.787Z,32.39
2022-08-17T12:25:15.800Z,32.37
2022-08-17T12:26:15.806Z,32.35
2022-08-17T12:27:15.757Z,32.32
2022-08-17T12:28:19.712Z,32.33
2022-08-17T12:29:18.123Z,32.32
2022-08-17T12:30:16.737Z,32.37
2022-08-17T12:31:15.731Z,32.43
2022-08-17T12:32:15.700Z,32.42
2022-08-17T12:33:27.909Z,32.27
2022-08-17T12:34:16.660Z,32.15
2022-08-17T12:35:15.652Z,32.13
2022-08-17T12:36:15.655Z,32.13
2022-08-17T12:37:15.637Z,32.05
2022-08-17T12:38:32.744Z,32.05
2022-08-17T12:39:21.171Z,32.03
2022-08-17T12:40:16.609Z,32.00
2022-08-17T12:41:15.573Z,31.98
2022-08-17T12:42:15.587Z,31.92
2022-08-17T12:43:15.567Z,31.99
2022-08-17T12:44:15.545Z,32.17
2022-08-17T12:45:15.536Z,32.36
2022-08-17T12:46:15.621Z,32.57
2022-08-17T12:47:21.009Z,32.71
2022-08-17T12:48:16.510Z,32.91
2022-08-17T12:49:15.468Z,33.11
2022-08-17T12:50:29.764Z,33.27
2022-08-17T12:51:16.461Z,33.22
2022-08-17T12:52:15.568Z,33.26